Time;durP1;ratioP1;P1;durP2;ratioP2;P2;SDS_P1;SDS_P2;PMS_P1;PMS_P2;Temp;Humidity;BMP_temperature;BMP_pressure;BME280_temperature;BME280_humidity;BME280_pressure;Samples;Min_cycle;Max_cycle;Signal;HPM_P1;HPM_P2
2022/07/02 00:00:06;;;;;;;4.05;2.00;;;15.60;69.20;;;;;;5002387;28;20045;-70
2022/07/02 00:02:36;;;;;;;5.93;2.22;;;15.50;69.30;;;;;;4999701;28;20030;-70
2022/07/02 00:05:05;;;;;;;4.22;2.17;;;15.50;69.60;;;;;;5001810;28;20042;-71
2022/07/02 00:07:31;;;;;;;5.18;1.95;;;15.40;69.90;;;;;;5004453;28;20038;-70
2022/07/02 00:09:58;;;;;;;6.00;2.40;;;15.40;70.10;;;;;;5001121;28;20049;-70
2022/07/02 00:12:25;;;;;;;5.40;2.22;;;15.40;70.40;;;;;;5001323;28;20470;-70
2022/07/02 00:14:54;;;;;;;5.35;2.15;;;15.30;70.60;;;;;;5004844;28;20547;-70
2022/07/02 00:17:20;;;;;;;7.20;2.22;;;15.30;70.80;;;;;;4998697;28;20347;-71
2022/07/02 00:19:46;;;;;;;5.43;2.25;;;15.20;70.80;;;;;;4999599;28;20083;-72
2022/07/02 00:22:14;;;;;;;3.70;1.92;;;15.20;70.80;;;;;;5002358;28;20042;-71
2022/07/02 00:24:42;;;;;;;5.93;2.28;;;15.10;70.80;;;;;;5003045;28;20053;-70
2022/07/02 00:27:13;;;;;;;5.07;2.40;;;15.10;70.90;;;;;;5001982;28;20774;-71
2022/07/02 00:29:50;;;;;;;6.80;1.90;;;15.10;71.20;;;;;;5001847;28;20037;-71
2022/07/02 00:32:15;;;;;;;5.05;2.15;;;15.10;71.30;;;;;;5001841;28;20032;-70
2022/07/02 00:34:44;;;;;;;5.70;2.42;;;15.00;71.40;;;;;;5001881;28;20038;-70
2022/07/02 00:37:11;;;;;;;5.25;1.90;;;15.00;71.60;;;;;;4999118;28;20043;-70
2022/07/02 00:39:37;;;;;;;5.15;2.20;;;15.00;71.70;;;;;;5002613;28;20030;-71
2022/07/02 00:42:08;;;;;;;6.80;2.38;;;14.90;71.80;;;;;;4999415;28;20038;-71
2022/07/02 00:44:34;;;;;;;6.43;2.60;;;14.90;72.10;;;;;;5004867;28;20685;-70
2022/07/02 00:47:05;;;;;;;5.57;2.50;;;14.80;72.20;;;;;;5001090;28;20038;-70
2022/07/02 00:49:33;;;;;;;5.97;2.22;;;14.80;72.50;;;;;;5002886;28;20038;-71
2022/07/02 00:51:59;;;;;;;4.43;2.33;;;14.80;72.60;;;;;;5000470;28;20030;-70
2022/07/02 00:54:26;;;;;;;6.20;2.70;;;14.80;72.60;;;;;;5001696;28;20038;-71
2022/07/02 00:56:52;;;;;;;6.20;2.97;;;14.70;72.70;;;;;;5002265;28;20124;-71
2022/07/02 00:59:22;;;;;;;6.72;3.05;;;14.70;72.60;;;;;;5003067;28;20426;-71
2022/07/02 01:01:48;;;;;;;8.63;3.08;;;14.70;73.00;;;;;;4998238;28;20049;-71
2022/07/02 01:04:15;;;;;;;6.80;3.58;;;14.70;73.20;;;;;;5002621;28;20046;-71
2022/07/02 01:06:42;;;;;;;10.40;4.47;;;14.60;73.20;;;;;;5000009;28;20159;-71
2022/07/02 01:12:01;;;;;;;7.30;3.60;;;14.60;73.50;;;;;;5000682;28;20061;-71
2022/07/02 01:14:27;;;;;;;9.35;4.70;;;14.60;73.40;;;;;;5002333;28;20065;-72
2022/07/02 01:16:53;;;;;;;7.80;4.18;;;14.60;73.80;;;;;;5000779;28;20548;-71
2022/07/02 01:19:21;;;;;;;10.30;3.90;;;14.60;74.00;;;;;;4997027;28;20034;-71
2022/07/02 01:22:18;;;;;;;7.57;4.20;;;14.60;74.00;;;;;;4999037;28;20390;-71
2022/07/02 01:24:47;;;;;;;8.30;3.70;;;14.60;73.90;;;;;;4993611;28;20534;-71
2022/07/02 01:27:13;;;;;;;8.55;4.00;;;14.50;74.00;;;;;;5002528;28;20034;-71
2022/07/02 01:29:39;;;;;;;7.15;3.97;;;14.50;74.20;;;;;;5003310;28;20761;-71
2022/07/02 01:32:05;;;;;;;12.35;3.85;;;14.40;74.30;;;;;;5000785;28;20056;-71
2022/07/02 01:34:38;;;;;;;5.60;3.58;;;14.40;74.40;;;;;;5003107;28;20076;-71
2022/07/02 01:37:09;;;;;;;11.82;4.43;;;14.30;74.50;;;;;;5000760;28;20042;-71
2022/07/02 01:39:36;;;;;;;8.23;3.63;;;14.30;74.50;;;;;;5002621;28;20065;-70
2022/07/02 01:42:02;;;;;;;8.05;4.03;;;14.20;74.60;;;;;;4999440;28;20038;-71
2022/07/02 01:44:28;;;;;;;7.95;4.38;;;14.20;74.60;;;;;;5001706;28;20038;-71
2022/07/02 01:46:53;;;;;;;7.60;4.20;;;14.10;74.90;;;;;;5002244;28;20041;-71
2022/07/02 01:49:19;;;;;;;8.82;4.38;;;14.20;75.10;;;;;;4997610;28;20036;-71
2022/07/02 01:51:45;;;;;;;11.38;5.78;;;14.10;75.10;;;;;;5002111;28;20076;-70
2022/07/02 01:54:11;;;;;;;8.20;5.00;;;14.10;75.10;;;;;;5000071;28;20030;-71
2022/07/02 01:56:37;;;;;;;9.93;5.25;;;14.10;75.10;;;;;;5000750;28;20049;-71
2022/07/02 01:59:03;;;;;;;11.70;6.70;;;14.10;75.30;;;;;;5001092;28;20394;-71
2022/07/02 02:01:29;;;;;;;8.50;5.25;;;14.10;75.40;;;;;;5003978;28;20033;-71
2022/07/02 02:03:54;;;;;;;7.85;5.13;;;14.00;75.40;;;;;;4995649;28;20444;-71
2022/07/02 02:06:20;;;;;;;11.95;5.55;;;14.10;75.70;;;;;;4994978;28;20034;-71
2022/07/02 02:08:46;;;;;;;7.78;4.45;;;14.10;76.00;;;;;;5002418;28;20045;-71
2022/07/02 02:11:11;;;;;;;11.02;4.70;;;14.10;76.00;;;;;;4998298;28;20085;-71
2022/07/02 02:13:37;;;;;;;7.97;4.10;;;14.10;76.10;;;;;;5000826;28;20034;-71
2022/07/02 02:16:03;;;;;;;8.30;4.50;;;14.10;76.20;;;;;;4989639;28;20057;-72
2022/07/02 02:18:29;;;;;;;8.68;4.53;;;14.00;76.30;;;;;;4988754;28;20038;-71
2022/07/02 02:20:54;;;;;;;8.45;4.15;;;14.00;76.40;;;;;;4991985;28;20129;-70
2022/07/02 02:23:20;;;;;;;7.32;3.55;;;14.00;76.40;;;;;;4996327;28;20673;-71
2022/07/02 02:25:45;;;;;;;8.32;3.90;;;13.90;76.20;;;;;;4997127;28;20076;-71
2022/07/02 02:28:11;;;;;;;8.13;3.88;;;13.90;76.20;;;;;;4997350;28;20041;-71
2022/07/02 02:30:36;;;;;;;9.38;3.97;;;13.80;76.50;;;;;;5002612;28;20049;-71
2022/07/02 02:33:02;;;;;;;7.45;4.00;;;13.80;76.70;;;;;;5005326;28;20030;-71
2022/07/02 02:35:28;;;;;;;7.25;3.83;;;13.80;76.80;;;;;;5002718;28;20042;-71
2022/07/02 02:37:53;;;;;;;14.73;4.53;;;13.70;77.00;;;;;;5015319;28;20038;-71
2022/07/02 02:40:19;;;;;;;7.85;3.58;;;13.70;77.10;;;;;;4999735;28;20493;-72
2022/07/02 02:42:45;;;;;;;9.18;4.70;;;13.70;77.10;;;;;;4996213;28;20041;-71
2022/07/02 02:45:11;;;;;;;9.60;4.65;;;13.60;77.30;;;;;;4994912;28;20047;-71
2022/07/02 02:47:36;;;;;;;8.90;4.20;;;13.60;77.40;;;;;;4999064;28;20040;-71
2022/07/02 02:50:06;;;;;;;10.43;4.47;;;13.60;77.40;;;;;;4996719;28;20050;-71
2022/07/02 02:52:31;;;;;;;8.68;4.00;;;13.60;77.50;;;;;;4998237;28;20048;-71
2022/07/02 02:54:57;;;;;;;11.57;5.30;;;13.60;77.50;;;;;;5001013;28;20038;-71
2022/07/02 02:57:23;;;;;;;10.07;4.90;;;13.60;77.60;;;;;;4993074;28;20677;-71
2022/07/02 02:59:48;;;;;;;10.43;4.35;;;13.60;77.70;;;;;;4993673;28;20057;-71
2022/07/02 03:02:14;;;;;;;10.18;4.28;;;13.60;77.70;;;;;;4997913;28;20038;-71
2022/07/02 03:04:40;;;;;;;16.75;4.25;;;13.60;77.60;;;;;;4997145;28;20617;-71
2022/07/02 03:07:05;;;;;;;8.60;4.18;;;13.60;77.70;;;;;;4985701;28;20393;-71
2022/07/02 03:09:31;;;;;;;9.75;4.20;;;13.50;77.80;;;;;;4988785;28;20052;-71
2022/07/02 03:11:57;;;;;;;9.82;4.60;;;13.40;78.00;;;;;;4988356;28;20556;-71
2022/07/02 03:14:22;;;;;;;8.85;3.97;;;13.40;78.00;;;;;;4990370;28;20034;-70
2022/07/02 03:16:48;;;;;;;7.80;3.95;;;13.40;78.10;;;;;;4991762;28;20034;-70
2022/07/02 03:19:14;;;;;;;8.68;3.72;;;13.30;78.30;;;;;;4996475;28;20386;-71
2022/07/02 03:21:39;;;;;;;8.18;3.70;;;13.30;78.20;;;;;;4994391;28;20038;-72
2022/07/02 03:24:05;;;;;;;10.68;4.78;;;13.30;78.20;;;;;;4986113;28;20034;-71
2022/07/02 03:26:31;;;;;;;9.13;4.20;;;13.30;78.20;;;;;;4987219;28;20033;-72
2022/07/02 03:28:56;;;;;;;7.63;3.80;;;13.20;78.20;;;;;;4996801;28;20064;-72
2022/07/02 03:31:22;;;;;;;10.10;3.67;;;13.20;78.20;;;;;;4992746;28;20038;-72
2022/07/02 03:33:48;;;;;;;9.60;4.05;;;13.20;78.40;;;;;;5005185;28;20133;-72
2022/07/02 03:36:14;;;;;;;7.13;3.80;;;13.10;78.50;;;;;;5007716;28;20037;-72
2022/07/02 03:38:39;;;;;;;9.52;4.18;;;13.10;78.60;;;;;;5012712;28;20034;-73
2022/07/02 03:41:08;;;;;;;10.27;3.88;;;13.10;78.60;;;;;;5006948;28;20030;-72
2022/07/02 03:43:35;;;;;;;8.15;4.18;;;13.10;78.70;;;;;;5009969;28;20080;-72
2022/07/02 03:46:01;;;;;;;8.00;4.10;;;13.10;78.90;;;;;;5007763;28;20439;-72
2022/07/02 03:48:27;;;;;;;8.88;3.72;;;13.10;78.90;;;;;;5010266;28;20026;-72
2022/07/02 03:50:53;;;;;;;9.40;4.22;;;13.10;78.90;;;;;;5010069;28;20092;-73
2022/07/02 03:53:18;;;;;;;7.18;4.07;;;13.10;78.70;;;;;;5009803;28;20423;-73
2022/07/02 03:55:44;;;;;;;8.95;4.00;;;13.10;78.80;;;;;;5008110;28;20130;-72
2022/07/02 03:58:10;;;;;;;7.22;4.32;;;13.10;78.80;;;;;;5008450;28;20073;-71
2022/07/02 04:00:36;;;;;;;7.25;3.72;;;13.10;78.90;;;;;;5009485;28;20033;-72
2022/07/02 04:03:02;;;;;;;9.02;4.05;;;13.10;78.70;;;;;;5011024;28;20122;-72
2022/07/02 04:05:27;;;;;;;8.63;3.80;;;13.10;78.70;;;;;;5011708;28;20045;-72
2022/07/02 04:07:53;;;;;;;9.32;4.32;;;13.20;78.70;;;;;;5009669;28;20042;-72
2022/07/02 04:10:19;;;;;;;11.23;4.18;;;13.20;78.50;;;;;;5010438;28;20141;-71
2022/07/02 04:12:45;;;;;;;9.95;3.95;;;13.20;78.30;;;;;;5009965;28;20349;-72
2022/07/02 04:15:11;;;;;;;8.38;4.00;;;13.20;78.40;;;;;;5009327;28;20165;-72
2022/07/02 04:17:37;;;;;;;8.93;4.95;;;13.20;78.50;;;;;;5006137;28;20050;-71
2022/07/02 04:20:03;;;;;;;7.43;4.10;;;13.20;78.60;;;;;;5006810;28;20046;-72
2022/07/02 04:22:28;;;;;;;9.07;4.35;;;13.30;78.70;;;;;;5012033;28;20022;-72
2022/07/02 04:24:55;;;;;;;8.52;4.47;;;13.30;78.60;;;;;;5011417;28;20045;-72
2022/07/02 04:27:20;;;;;;;6.85;3.78;;;13.40;78.50;;;;;;5010933;28;20038;-72
2022/07/02 04:29:46;;;;;;;9.95;5.05;;;13.40;78.40;;;;;;5008272;28;20399;-72
2022/07/02 04:32:12;;;;;;;7.53;3.65;;;13.50;78.20;;;;;;5001159;28;20034;-72
2022/07/02 04:34:38;;;;;;;8.18;4.00;;;13.60;78.20;;;;;;5011384;28;20053;-74
2022/07/02 04:37:04;;;;;;;7.35;3.88;;;13.60;78.00;;;;;;5010867;28;20410;-75
2022/07/02 04:39:30;;;;;;;9.02;4.47;;;13.60;78.00;;;;;;5009808;28;20033;-75
2022/07/02 04:41:57;;;;;;;7.13;3.70;;;13.60;78.10;;;;;;5010549;28;20049;-75
2022/07/02 04:44:24;;;;;;;7.75;4.47;;;13.70;78.00;;;;;;5011349;28;20045;-75
2022/07/02 04:46:49;;;;;;;7.88;3.70;;;13.80;77.90;;;;;;5009612;28;20029;-74
2022/07/02 04:49:15;;;;;;;5.78;3.45;;;13.80;77.80;;;;;;5007918;28;20490;-75
2022/07/02 04:51:41;;;;;;;7.72;3.45;;;13.80;77.60;;;;;;5010353;28;20105;-75
2022/07/02 04:54:07;;;;;;;8.15;3.88;;;14.00;77.60;;;;;;5012489;28;20497;-75
2022/07/02 04:56:33;;;;;;;10.57;3.95;;;14.00;77.50;;;;;;5012108;28;20084;-75
2022/07/02 04:58:58;;;;;;;7.75;2.95;;;14.10;77.30;;;;;;5012421;28;20052;-75
2022/07/02 05:01:24;;;;;;;6.93;3.30;;;14.10;77.50;;;;;;5007250;28;20068;-75
2022/07/02 05:03:53;;;;;;;6.72;3.33;;;14.20;77.40;;;;;;5012535;28;20410;-74
2022/07/02 05:06:19;;;;;;;4.97;2.83;;;14.20;77.30;;;;;;5009519;28;20044;-75
2022/07/02 05:08:45;;;;;;;9.50;3.53;;;14.40;77.20;;;;;;5010865;28;20061;-75
2022/07/02 05:11:10;;;;;;;8.75;3.40;;;14.40;77.10;;;;;;5006436;28;20096;-75
2022/07/02 05:13:36;;;;;;;5.65;2.75;;;15.00;78.00;;;;;;5012626;28;20084;-75
2022/07/02 05:16:02;;;;;;;6.97;2.50;;;16.70;75.50;;;;;;5009620;28;20621;-76
2022/07/02 05:18:27;;;;;;;4.43;2.15;;;19.00;68.80;;;;;;5012258;28;20042;-75
2022/07/02 05:20:53;;;;;;;5.40;2.20;;;21.00;61.20;;;;;;5010686;28;20124;-76
2022/07/02 05:23:19;;;;;;;3.28;1.60;;;22.50;55.30;;;;;;5011265;28;20030;-75
2022/07/02 05:25:44;;;;;;;5.55;1.90;;;23.70;51.40;;;;;;5010549;28;20042;-75
2022/07/02 05:28:10;;;;;;;5.75;1.98;;;24.60;47.50;;;;;;5011131;28;20092;-76
2022/07/02 05:30:35;;;;;;;4.78;1.95;;;25.30;45.80;;;;;;5009381;28;20029;-76
2022/07/02 05:33:01;;;;;;;5.40;1.90;;;26.00;44.00;;;;;;5010158;28;20049;-77
2022/07/02 05:35:27;;;;;;;3.88;1.70;;;26.60;42.30;;;;;;5010901;28;20065;-76
2022/07/02 05:37:53;;;;;;;7.18;2.25;;;27.00;41.40;;;;;;5010516;28;20030;-76
2022/07/02 05:40:18;;;;;;;5.22;1.80;;;27.10;40.80;;;;;;5010991;28;20592;-76
2022/07/02 05:42:44;;;;;;;6.35;2.47;;;26.50;41.70;;;;;;5009236;28;20041;-75
2022/07/02 05:45:10;;;;;;;5.18;2.00;;;26.80;41.40;;;;;;5010507;28;20449;-76
2022/07/02 05:47:36;;;;;;;6.28;1.95;;;26.40;40.50;;;;;;5011658;28;20025;-76
2022/07/02 05:50:02;;;;;;;5.60;1.70;;;26.00;41.20;;;;;;5011454;28;20038;-76
2022/07/02 05:52:28;;;;;;;6.07;2.10;;;26.10;40.70;;;;;;4997230;28;20038;-76
2022/07/02 05:54:53;;;;;;;6.75;1.73;;;25.90;41.20;;;;;;5004868;28;20069;-75
2022/07/02 05:57:19;;;;;;;4.45;1.45;;;24.90;43.20;;;;;;5009167;28;20046;-75
2022/07/02 05:59:45;;;;;;;5.20;1.55;;;24.10;44.40;;;;;;5011534;28;20389;-75
2022/07/02 06:02:10;;;;;;;5.57;1.50;;;23.10;46.50;;;;;;5010956;28;20057;-76
2022/07/02 06:04:36;;;;;;;8.80;1.95;;;21.70;49.80;;;;;;5011926;28;20038;-75
2022/07/02 06:09:46;;;;;;;6.20;1.80;;;20.20;53.40;;;;;;5011588;28;20044;-76
2022/07/02 06:12:12;;;;;;;6.15;1.73;;;20.00;54.90;;;;;;5001245;28;20021;-75
2022/07/02 06:14:38;;;;;;;9.07;2.25;;;19.70;56.30;;;;;;5004597;28;20050;-75
2022/07/02 06:17:03;;;;;;;5.13;1.83;;;19.50;56.70;;;;;;5009884;28;20460;-76
2022/07/02 06:19:29;;;;;;;4.90;1.67;;;19.30;58.60;;;;;;5011716;28;20034;-76
2022/07/02 06:21:55;;;;;;;8.82;5.30;;;19.30;58.80;;;;;;5012133;28;20953;-75
2022/07/02 06:24:20;;;;;;;5.72;1.85;;;19.20;59.40;;;;;;5009157;28;20050;-76
2022/07/02 06:26:46;;;;;;;4.55;1.85;;;19.30;59.10;;;;;;5009318;28;20474;-75
2022/07/02 06:29:12;;;;;;;7.57;1.90;;;19.30;58.90;;;;;;5003550;28;20481;-75
2022/07/02 06:31:37;;;;;;;5.35;1.80;;;19.40;59.20;;;;;;5009129;28;20467;-76
2022/07/02 06:34:04;;;;;;;3.67;2.08;;;19.50;58.60;;;;;;5008768;28;20103;-76
2022/07/02 06:36:30;;;;;;;6.38;1.67;;;19.60;58.00;;;;;;5008755;28;20100;-76
2022/07/02 06:38:55;;;;;;;5.32;1.65;;;19.60;57.80;;;;;;5005937;28;20475;-76
2022/07/02 06:44:06;;;;;;;;;;;19.70;58.70;;;;;;5010432;28;20507;-76
2022/07/02 06:46:33;;;;;;;5.53;1.73;;;19.90;57.70;;;;;;5009005;28;19913;-76
2022/07/02 06:48:59;;;;;;;5.10;1.52;;;19.90;56.90;;;;;;5009235;28;20138;-75
2022/07/02 06:51:24;;;;;;;5.07;1.70;;;20.00;56.60;;;;;;5002094;28;20037;-75
2022/07/02 06:53:50;;;;;;;5.45;1.67;;;19.90;55.40;;;;;;5009607;28;20033;-75
2022/07/02 06:56:16;;;;;;;4.68;1.35;;;20.00;55.00;;;;;;5008014;28;20168;-76
2022/07/02 06:58:42;;;;;;;4.65;1.25;;;20.10;53.80;;;;;;5009316;28;20045;-75
2022/07/02 07:01:08;;;;;;;4.90;1.50;;;20.30;54.30;;;;;;4999916;28;20448;-76
2022/07/02 07:03:33;;;;;;;4.03;1.35;;;20.40;54.50;;;;;;5008433;28;20040;-76
2022/07/02 07:05:59;;;;;;;3.67;1.40;;;20.60;53.60;;;;;;5025306;28;20426;-75
2022/07/02 07:08:25;;;;;;;4.38;1.65;;;20.70;52.50;;;;;;5029579;28;20038;-75
2022/07/02 07:10:50;;;;;;;6.63;1.50;;;20.70;53.10;;;;;;5017602;28;20037;-76
2022/07/02 07:13:16;;;;;;;2.85;1.10;;;20.90;53.30;;;;;;5009885;28;20478;-76
2022/07/02 07:15:42;;;;;;;3.67;1.20;;;21.10;50.90;;;;;;5004169;28;20112;-76
2022/07/02 07:18:07;;;;;;;2.67;1.00;;;21.10;50.70;;;;;;5009160;28;20433;-76
2022/07/02 07:20:34;;;;;;;5.18;1.20;;;21.20;50.50;;;;;;5009227;28;20064;-76
2022/07/02 07:22:59;;;;;;;2.65;1.27;;;21.30;48.90;;;;;;5008957;28;20026;-76
2022/07/02 07:25:26;;;;;;;3.90;1.00;;;21.40;50.30;;;;;;5009518;28;20091;-76
2022/07/02 07:27:52;;;;;;;3.80;1.55;;;21.50;49.60;;;;;;5008335;28;20037;-76
2022/07/02 07:30:18;;;;;;;5.03;1.38;;;21.60;48.60;;;;;;5003730;28;20045;-75
2022/07/02 07:32:44;;;;;;;2.33;0.90;;;21.70;47.90;;;;;;5008269;28;20034;-76
2022/07/02 07:35:10;;;;;;;2.83;0.93;;;21.70;48.30;;;;;;5007086;28;20038;-76
2022/07/02 07:37:36;;;;;;;1.73;1.10;;;21.80;49.00;;;;;;5014113;28;20160;-76
2022/07/02 07:40:03;;;;;;;3.40;1.15;;;22.10;48.80;;;;;;5007981;28;20088;-76
2022/07/02 07:42:29;;;;;;;3.45;1.17;;;22.10;49.20;;;;;;5007866;28;20112;-75
2022/07/02 07:44:55;;;;;;;3.40;1.10;;;22.20;47.40;;;;;;5004163;28;20181;-76
2022/07/02 07:47:21;;;;;;;4.35;1.42;;;22.30;48.50;;;;;;5008095;28;20101;-76
2022/07/02 07:49:46;;;;;;;3.55;1.30;;;22.40;47.80;;;;;;5009985;28;20061;-76
2022/07/02 07:52:12;;;;;;;4.07;1.30;;;22.60;47.10;;;;;;5007827;28;20045;-76
2022/07/02 07:54:38;;;;;;;4.82;1.30;;;22.50;46.60;;;;;;5009019;28;20455;-76
2022/07/02 07:57:04;;;;;;;3.58;1.38;;;22.40;46.80;;;;;;5000878;28;20038;-75
2022/07/02 07:59:30;;;;;;;5.07;1.60;;;22.60;48.10;;;;;;5008376;28;20037;-76
2022/07/02 08:01:56;;;;;;;5.70;1.30;;;22.60;47.50;;;;;;5008074;28;20025;-76
2022/07/02 08:04:21;;;;;;;5.55;1.80;;;22.60;47.70;;;;;;5007819;28;20057;-76
2022/07/02 08:06:47;;;;;;;6.10;1.73;;;22.70;48.10;;;;;;5006310;28;20556;-76
2022/07/02 08:09:13;;;;;;;6.85;1.60;;;22.90;47.60;;;;;;5004850;28;20026;-76
2022/07/02 08:11:39;;;;;;;5.20;1.48;;;22.80;46.80;;;;;;5008986;28;20520;-76
2022/07/02 08:14:04;;;;;;;4.40;1.55;;;22.80;47.40;;;;;;5007951;28;20112;-76
2022/07/02 08:16:31;;;;;;;3.75;1.40;;;22.90;48.00;;;;;;5007663;28;20058;-75
2022/07/02 08:18:57;;;;;;;4.20;1.50;;;23.10;46.70;;;;;;5008423;28;20088;-76
2022/07/02 08:21:23;;;;;;;4.90;1.52;;;23.10;47.20;;;;;;5010607;28;20435;-76
2022/07/02 08:23:48;;;;;;;7.05;1.90;;;23.10;47.30;;;;;;5013317;28;20120;-76
2022/07/02 08:26:14;;;;;;;6.53;1.73;;;23.30;45.90;;;;;;5012515;28;20040;-76
2022/07/02 08:28:41;;;;;;;6.53;1.70;;;23.50;46.70;;;;;;5009097;28;20035;-75
2022/07/02 08:31:06;;;;;;;6.25;1.70;;;23.40;46.60;;;;;;5012087;28;20092;-76
2022/07/02 08:33:32;;;;;;;5.85;1.80;;;23.50;47.00;;;;;;5011957;28;20030;-75
2022/07/02 08:35:58;;;;;;;4.75;1.50;;;23.60;46.30;;;;;;5013219;28;20045;-76
2022/07/02 08:38:23;;;;;;;5.63;1.60;;;23.80;46.20;;;;;;5021675;28;20041;-76
2022/07/02 08:40:49;;;;;;;5.68;1.92;;;23.80;46.90;;;;;;5012129;28;20485;-76
2022/07/02 08:43:16;;;;;;;7.82;1.83;;;23.60;46.40;;;;;;5008715;28;20443;-76
2022/07/02 08:45:43;;;;;;;6.97;2.08;;;23.50;46.40;;;;;;5004381;28;20046;-76
2022/07/02 08:48:10;;;;;;;7.45;1.80;;;23.20;48.20;;;;;;5007259;28;20047;-75
2022/07/02 08:50:36;;;;;;;6.90;1.90;;;23.50;46.60;;;;;;5009415;28;20037;-76
2022/07/02 08:53:06;;;;;;;5.10;1.80;;;23.40;47.90;;;;;;5011033;28;20042;-76
2022/07/02 08:55:34;;;;;;;4.93;1.73;;;23.80;46.90;;;;;;5011672;28;20085;-76
2022/07/02 08:58:00;;;;;;;7.32;1.98;;;24.00;46.00;;;;;;5010775;28;20052;-76
2022/07/02 09:00:27;;;;;;;7.68;2.60;;;24.20;45.50;;;;;;5011038;28;20094;-75
2022/07/02 09:02:54;;;;;;;6.47;2.30;;;24.30;47.40;;;;;;5007468;28;20041;-75
2022/07/02 09:05:25;;;;;;;6.28;2.15;;;24.60;47.80;;;;;;5012204;28;20042;-75
2022/07/02 09:07:52;;;;;;;6.10;2.03;;;24.80;45.80;;;;;;5011750;28;20037;-75
2022/07/02 09:10:20;;;;;;;9.27;2.47;;;24.70;44.80;;;;;;5011605;28;20489;-75
2022/07/02 09:12:47;;;;;;;9.60;2.85;;;24.60;45.00;;;;;;5006316;28;20030;-75
2022/07/02 09:15:14;;;;;;;5.97;2.40;;;24.70;44.60;;;;;;5011605;28;20204;-75
2022/07/02 09:17:43;;;;;;;6.63;2.30;;;24.80;46.50;;;;;;5011699;28;20026;-75
2022/07/02 09:20:11;;;;;;;5.95;1.77;;;24.90;44.50;;;;;;5005292;28;20043;-75
2022/07/02 09:22:51;;;;;;;5.82;1.83;;;25.00;44.00;;;;;;5006640;28;20104;-74
2022/07/02 09:25:19;;;;;;;6.47;1.88;;;25.30;43.40;;;;;;5006633;28;20037;-76
2022/07/02 09:27:46;;;;;;;5.07;2.05;;;25.20;43.10;;;;;;5010049;28;20389;-75
2022/07/02 09:30:16;;;;;;;5.35;2.22;;;25.10;44.40;;;;;;5010255;28;20038;-74
2022/07/02 09:32:44;;;;;;;6.47;1.80;;;25.10;43.50;;;;;;5010990;28;20042;-75
2022/07/02 09:35:20;;;;;;;4.97;1.58;;;25.20;42.90;;;;;;5008717;28;20062;-75
2022/07/02 09:37:50;;;;;;;5.90;1.90;;;25.40;42.40;;;;;;5011453;28;20076;-75
2022/07/02 09:40:17;;;;;;;6.07;1.52;;;25.40;43.20;;;;;;5016110;28;20030;-74
2022/07/02 09:42:49;;;;;;;4.43;1.55;;;25.20;41.60;;;;;;5016893;28;20417;-74
2022/07/02 09:45:16;;;;;;;6.38;1.90;;;25.00;43.10;;;;;;5000938;28;20038;-74
2022/07/02 09:47:48;;;;;;;3.40;1.35;;;25.20;42.50;;;;;;5006832;28;20121;-74
2022/07/02 09:50:16;;;;;;;6.30;1.70;;;25.40;41.00;;;;;;5003298;28;20061;-75
2022/07/02 09:52:55;;;;;;;3.47;1.40;;;25.40;41.60;;;;;;5010289;28;20037;-74
2022/07/02 09:55:28;;;;;;;5.53;1.63;;;25.50;41.30;;;;;;5004477;28;20042;-74
2022/07/02 09:58:00;;;;;;;5.35;2.03;;;25.60;41.30;;;;;;5003599;28;20069;-75
2022/07/02 10:00:28;;;;;;;4.20;1.45;;;26.00;42.30;;;;;;5010581;28;20044;-75
2022/07/02 10:02:56;;;;;;;8.63;2.00;;;25.90;40.10;;;;;;5011936;28;20494;-76
2022/07/02 10:05:27;;;;;;;4.30;1.90;;;25.90;40.80;;;;;;5019397;28;20102;-76
2022/07/02 10:07:57;;;;;;;4.32;1.85;;;26.20;41.20;;;;;;5017881;28;20052;-75
2022/07/02 10:10:36;;;;;;;4.60;1.50;;;26.40;40.60;;;;;;5008483;28;20742;-76
2022/07/02 10:13:03;;;;;;;2.42;1.40;;;26.60;38.20;;;;;;5009596;28;20029;-76
2022/07/02 10:15:31;;;;;;;5.38;1.30;;;26.60;39.30;;;;;;5011045;28;20038;-75
2022/07/02 10:17:58;;;;;;;4.00;1.20;;;26.80;37.60;;;;;;5009894;28;20049;-77
2022/07/02 10:20:24;;;;;;;2.88;1.23;;;26.70;38.60;;;;;;5004690;28;20037;-77
2022/07/02 10:22:50;;;;;;;6.55;1.10;;;27.00;38.60;;;;;;5007628;28;20030;-76
2022/07/02 10:25:19;;;;;;;3.90;1.30;;;26.80;37.20;;;;;;5009781;28;20489;-77
2022/07/02 10:27:46;;;;;;;3.95;1.20;;;26.70;37.60;;;;;;5011050;28;20030;-76
2022/07/02 10:30:24;;;;;;;3.13;0.98;;;26.60;37.70;;;;;;5009017;28;20075;-77
2022/07/02 10:33:02;;;;;;;4.80;1.35;;;26.80;38.10;;;;;;5010389;28;20022;-76
2022/07/02 10:35:29;;;;;;;4.50;1.20;;;27.00;37.10;;;;;;5009901;28;20099;-77
2022/07/02 10:37:59;;;;;;;5.38;1.00;;;27.10;37.30;;;;;;5009639;28;20049;-76
2022/07/02 10:40:25;;;;;;;3.70;1.20;;;27.20;37.10;;;;;;5008748;28;20026;-74
2022/07/02 10:42:53;;;;;;;3.95;1.30;;;26.80;36.20;;;;;;5008104;28;20103;-75
2022/07/02 10:45:23;;;;;;;2.75;1.10;;;26.70;36.00;;;;;;5007046;28;20030;-75
2022/07/02 10:48:05;;;;;;;5.32;1.20;;;26.30;37.60;;;;;;5010679;28;20164;-75
2022/07/02 10:50:38;;;;;;;3.03;1.00;;;26.40;36.30;;;;;;5008920;28;20109;-76
2022/07/02 10:53:16;;;;;;;3.38;1.20;;;26.80;36.70;;;;;;5001687;28;20041;-76
2022/07/02 10:55:44;;;;;;;3.28;1.20;;;27.10;35.90;;;;;;5005536;28;20157;-76
2022/07/02 10:58:31;;;;;;;3.63;1.30;;;27.30;35.40;;;;;;5016135;28;20492;-76
2022/07/02 11:01:07;;;;;;;4.15;1.10;;;27.50;36.80;;;;;;5017703;28;20045;-76
2022/07/02 11:03:34;;;;;;;3.38;1.33;;;27.80;35.50;;;;;;5013332;28;20178;-76
2022/07/02 11:06:02;;;;;;;2.22;0.82;;;27.70;34.40;;;;;;5009069;28;20141;-75
2022/07/02 11:08:46;;;;;;;2.78;1.00;;;27.10;36.50;;;;;;5010447;28;20033;-76
2022/07/02 11:11:16;;;;;;;3.47;1.02;;;26.90;37.80;;;;;;5001039;28;20037;-75
2022/07/02 11:13:47;;;;;;;2.55;1.00;;;27.30;35.90;;;;;;5008337;28;20481;-75
2022/07/02 11:16:38;;;;;;;1.67;0.88;;;27.20;36.90;;;;;;5009410;28;20100;-76
2022/07/02 11:19:05;;;;;;;3.47;0.93;;;27.30;35.50;;;;;;5008517;28;20041;-75
2022/07/02 11:21:31;;;;;;;4.60;1.00;;;27.20;35.90;;;;;;5004601;28;20510;-75
2022/07/02 11:23:57;;;;;;;2.97;0.90;;;26.90;36.00;;;;;;4989968;28;20053;-75
2022/07/02 11:26:27;;;;;;;4.82;0.95;;;27.00;36.30;;;;;;5006059;28;20458;-75
2022/07/02 11:28:54;;;;;;;3.00;1.00;;;27.00;36.30;;;;;;5007854;28;20365;-75
2022/07/02 11:31:22;;;;;;;3.30;1.00;;;27.00;35.90;;;;;;5000066;28;20030;-75
2022/07/02 11:33:52;;;;;;;3.97;1.00;;;27.30;36.20;;;;;;5010613;28;20030;-74
2022/07/02 11:36:18;;;;;;;4.45;1.20;;;27.50;36.40;;;;;;5002740;28;20482;-75
2022/07/02 11:38:45;;;;;;;3.60;0.80;;;27.70;36.90;;;;;;5010652;28;20036;-74
2022/07/02 11:41:18;;;;;;;4.13;1.10;;;28.00;35.20;;;;;;5001130;28;20049;-75
2022/07/02 11:43:44;;;;;;;3.40;1.10;;;27.70;36.20;;;;;;5002936;28;20041;-74
2022/07/02 11:46:13;;;;;;;2.72;1.00;;;27.50;35.70;;;;;;5003536;28;20034;-75
2022/07/02 11:48:39;;;;;;;3.60;1.00;;;27.20;35.20;;;;;;5002098;28;20034;-75
2022/07/02 11:51:05;;;;;;;4.80;1.20;;;27.00;36.30;;;;;;4998162;28;20030;-75
2022/07/02 11:53:31;;;;;;;2.67;0.85;;;26.70;36.10;;;;;;5002891;28;20558;-75
2022/07/02 11:56:11;;;;;;;2.60;1.10;;;26.50;36.90;;;;;;5001510;28;20145;-75
2022/07/02 11:58:48;;;;;;;2.35;0.90;;;26.50;37.70;;;;;;5000355;28;20054;-75
2022/07/02 12:01:33;;;;;;;3.42;0.98;;;26.60;36.70;;;;;;5007552;28;20038;-75
2022/07/02 12:04:04;;;;;;;3.22;1.05;;;26.80;36.20;;;;;;5010203;28;20076;-74
2022/07/02 12:06:35;;;;;;;3.63;0.90;;;26.60;36.30;;;;;;5003319;28;20042;-75
2022/07/02 12:09:03;;;;;;;3.17;1.02;;;27.10;37.10;;;;;;5012400;28;20050;-75
2022/07/02 12:11:32;;;;;;;4.63;1.00;;;27.00;37.80;;;;;;5008432;28;20224;-75
2022/07/02 12:13:57;;;;;;;3.70;1.17;;;27.20;37.10;;;;;;5010060;28;20033;-75
2022/07/02 12:16:25;;;;;;;2.50;0.90;;;27.60;36.30;;;;;;5008544;28;20121;-75
2022/07/02 12:18:58;;;;;;;4.43;1.10;;;28.00;35.50;;;;;;4996669;28;20129;-75
2022/07/02 12:21:39;;;;;;;2.80;0.90;;;28.00;34.50;;;;;;5011305;28;20070;-75
2022/07/02 12:24:29;;;;;;;3.45;1.02;;;28.00;35.80;;;;;;4997798;28;20368;-75
2022/07/02 12:26:59;;;;;;;3.58;1.00;;;27.80;35.90;;;;;;5004521;28;20084;-74
2022/07/02 12:32:14;;;;;;;1.77;0.80;;;27.20;35.70;;;;;;4999231;28;20077;-74
2022/07/02 12:34:56;;;;;;;2.72;1.10;;;28.00;35.10;;;;;;5004486;28;20038;-75
2022/07/02 12:37:27;;;;;;;2.53;0.90;;;28.50;34.60;;;;;;5010609;28;20129;-75
2022/07/02 12:40:08;;;;;;;3.90;0.93;;;28.80;32.80;;;;;;5011674;28;20088;-75
2022/07/02 12:42:46;;;;;;;2.67;0.90;;;29.10;34.50;;;;;;5009843;28;20038;-75
2022/07/02 12:45:28;;;;;;;3.83;1.05;;;28.90;32.30;;;;;;5009712;28;20531;-75
2022/07/02 12:48:06;;;;;;;3.08;0.98;;;29.00;32.80;;;;;;5004296;28;20038;-75
2022/07/02 12:50:34;;;;;;;2.20;0.88;;;28.70;32.70;;;;;;5009808;28;20133;-75
2022/07/02 12:53:06;;;;;;;1.35;0.80;;;28.30;33.90;;;;;;5006595;28;20046;-75
2022/07/02 12:55:33;;;;;;;3.53;1.10;;;28.30;33.90;;;;;;5010723;28;20057;-75
2022/07/02 12:58:03;;;;;;;5.93;0.95;;;28.70;33.10;;;;;;5000081;28;20539;-75